Nearby METAR Reports

 

KSJC - San Jose, California, USA
Distance from station: NØ 14km
Oppdatert: 22/01/2022 11:53
Klart
Klart
 Vind fra N
Vind: N 37 km/h, Vindkast: 50 km/h
Temperatur: 16°C
Duggpunkt: -6°C
Fuktighet: 22%
Barometer: 1018.3 hPa
Clouds: Klart
Visibility: 16 km
2022/01/22 10:53 KSJC 221053Z AUTO 36020G27KT 10SM CLR 16/M06 A3007 RMK AO2 PK WND 01027/1052 SLP182 T01561061
KNUQ - Moffett Nas/Mtn, California, USA
Distance from station: N 14km
Oppdatert: 22/01/2022 12:35
Klart
Klart
 Vind fra calm
Vind: Stille
Temperatur: 13°C
Duggpunkt: -2°C
Fuktighet: 36%
Barometer: 1019.3 hPa
Clouds: Klart
Visibility: 16 km
2022/01/22 11:35 KNUQ 221135Z AUTO 00000KT 10SM CLR 13/M02 A3010 RMK AO2
 
KPAO - Palo Alto, California, USA
Distance from station: NNV 23km
Oppdatert: 22/01/2022 04:47
NOT Current
Klart
Klart
 Vind fra varies
Vind: varies 9 km/h
Temperatur: 12°C
Duggpunkt: 1°C
Fuktighet: 47%
Barometer: 1020.7 hPa
Clouds: Klart
Visibility: 16 km
2022/01/22 03:47 KPAO 220347Z VRB05KT 10SM SKC 12/01 A3014
KRHV - San Jose/Reid, California, USA
Distance from station: ØNØ 19km
Oppdatert: 22/01/2022 06:55
NOT Current
Delvis skyet
Delvis skyet
 Vind fra calm
Vind: Stille
Temperatur: 16°C
Duggpunkt: -4°C
Fuktighet: 25%
Barometer: 1019.6 hPa
Clouds: Delvis skyet
Visibility: 16 km
Cloud details: Delvis skyet 3048 m
2022/01/22 05:55 KRHV 220555Z 00000KT 10SM SCT100 16/M04 A3011 RMK LAST
 
KOAK - Oakland, California, USA
Distance from station: NNV 50km
Oppdatert: 22/01/2022 11:53
Delvis skyet
Delvis skyet
 Vind fra ØNØ
Vind: ØNØ 28 km/h, Vindkast: 41 km/h
Temperatur: 16°C
Duggpunkt: -4°C
Fuktighet: 25%
Barometer: 1019.3 hPa
Clouds: Delvis skyet
Visibility: 16 km
Cloud details: Delvis skyet 6096 m
2022/01/22 10:53 KOAK 221053Z 06015G22KT 10SM SCT200 16/M04 A3010 RMK AO2 SLP191 T01561039
KSQL - San Carlos Airpo, California, USA
Distance from station: NV 34km
Oppdatert: 22/01/2022 12:35
Klart
Klart
 Vind fra calm
Vind: Stille
Temperatur: 9°C
Duggpunkt: -2°C
Fuktighet: 46%
Barometer: 1019.6 hPa
Clouds: Klart
Visibility: 16 km
2022/01/22 11:35 KSQL 221135Z AUTO 00000KT 10SM CLR 09/M02 A3011 RMK AO2
 
KSFO - San Francisco, California, USA
Distance from station: NV 49km
Oppdatert: 22/01/2022 11:56
Klart
Klart
 Vind fra Ø
Vind: Ø 15 km/h
Temperatur: 14°C
Duggpunkt: 4°C
Fuktighet: 51%
Barometer: 1019 hPa
Clouds: Klart
Visibility: 16 km
2022/01/22 10:56 KSFO 221056Z 09008KT 10SM CLR 14/04 A3009 RMK AO2 SLP190 T01440039
KE16 - San Martin, California, USA
Distance from station: ØSØ 43km
Oppdatert: 22/01/2022 12:30
Klart
Klart
 Vind fra calm
Vind: Stille
Temperatur: 3°C
Duggpunkt: 0°C
Fuktighet: 81%
Barometer: 1019.6 hPa
Clouds: Klart
Visibility: 16 km
2022/01/22 11:30 KE16 221130Z AUTO 00000KT 10SM CLR 03/00 A3011 RMK AO2
 
KWVI - Watsonville, California, USA
Distance from station: SSØ 44km
Oppdatert: 22/01/2022 11:53
Klart
Klart
 Vind fra NNV
Vind: NNV 6 km/h
Temperatur: 6°C
Duggpunkt: -1°C
Fuktighet: 61%
Barometer: 1018.3 hPa
Clouds: Klart
Visibility: 16 km
2022/01/22 10:53 KWVI 221053Z AUTO 33003KT 10SM CLR 06/M01 A3007 RMK AO2 SLP183 T00611006
KHAF - Half Moon Bay, California, USA
Distance from station: VNV 50km
Oppdatert: 22/01/2022 12:35
Klart
Klart
 Vind fra Ø
Vind: Ø 19 km/h, Vindkast: 44 km/h
Temperatur: 16°C
Duggpunkt: -4°C
Fuktighet: 25%
Barometer: 1017.6 hPa
Clouds: Klart
Visibility: 16 km
2022/01/22 11:35 KHAF 221135Z AUTO 09010G24KT 060V120 10SM CLR 16/M04 A3005 RMK AO2
 
KHWD - Hayward, California, USA
Distance from station: N 44km
Oppdatert: 22/01/2022 11:54
Klart
Klart
 Vind fra NØ
Vind: NØ 17 km/h, Vindkast: 41 km/h
Temperatur: 16°C
Duggpunkt: -4°C
Fuktighet: 25%
Barometer: 1019 hPa
Clouds: Klart
Visibility: 16 km
2022/01/22 10:54 KHWD 221054Z AUTO 04009G22KT 360V080 10SM CLR 16/M04 A3009 RMK AO2 SLP196 T01611044
KLVK - Livermore, California, USA
Distance from station: NNØ 51km
Oppdatert: 22/01/2022 11:53
Klart
Klart
 Vind fra calm
Vind: Stille
Temperatur: 14°C
Duggpunkt: -4°C
Fuktighet: 29%
Barometer: 1019.3 hPa
Clouds: Klart
Visibility: 16 km
2022/01/22 10:53 KLVK 221053Z AUTO 00000KT 10SM CLR 14/M04 A3010 RMK AO2 SLP190 T01391044 $